sensor_id;sensor_type;location;lat;lon;timestamp;temperature;humidity
7512;DHT22;9999;48.780;9.146;2022-11-22T00:01:28;5.50;99.90
7512;DHT22;9999;48.780;9.146;2022-11-22T00:03:55;5.50;99.90
7512;DHT22;9999;48.780;9.146;2022-11-22T00:06:22;5.50;99.90
7512;DHT22;9999;48.780;9.146;2022-11-22T00:08:48;5.50;99.90
7512;DHT22;9999;48.780;9.146;2022-11-22T00:11:15;5.60;99.90
7512;DHT22;9999;48.780;9.146;2022-11-22T00:13:42;5.60;99.90
7512;DHT22;9999;48.780;9.146;2022-11-22T00:16:10;5.50;99.90
7512;DHT22;9999;48.780;9.146;2022-11-22T00:18:37;5.60;99.90
7512;DHT22;9999;48.780;9.146;2022-11-22T00:21:05;5.70;99.90
7512;DHT22;9999;48.780;9.146;2022-11-22T00:23:32;5.70;99.90
7512;DHT22;9999;48.780;9.146;2022-11-22T00:25:59;5.70;99.90
7512;DHT22;9999;48.780;9.146;2022-11-22T00:28:26;5.70;99.90
7512;DHT22;9999;48.780;9.146;2022-11-22T00:30:53;5.70;99.90
7512;DHT22;9999;48.780;9.146;2022-11-22T00:33:21;5.60;99.90
7512;DHT22;9999;48.780;9.146;2022-11-22T00:35:48;5.60;99.90
7512;DHT22;9999;48.780;9.146;2022-11-22T00:38:15;5.60;99.90
7512;DHT22;9999;48.780;9.146;2022-11-22T00:40:42;5.60;99.90
7512;DHT22;9999;48.780;9.146;2022-11-22T00:43:09;5.60;99.90
7512;DHT22;9999;48.780;9.146;2022-11-22T00:45:36;5.60;99.90
7512;DHT22;9999;48.780;9.146;2022-11-22T00:48:04;5.50;99.90
7512;DHT22;9999;48.780;9.146;2022-11-22T00:50:32;5.50;99.90
7512;DHT22;9999;48.780;9.146;2022-11-22T00:52:59;5.50;99.90
7512;DHT22;9999;48.780;9.146;2022-11-22T00:55:26;5.50;99.90
7512;DHT22;9999;48.780;9.146;2022-11-22T00:57:52;5.50;99.90
7512;DHT22;9999;48.780;9.146;2022-11-22T01:00:19;5.50;99.90
7512;DHT22;9999;48.780;9.146;2022-11-22T01:02:46;5.60;99.90
7512;DHT22;9999;48.780;9.146;2022-11-22T01:05:13;5.50;99.90
7512;DHT22;9999;48.780;9.146;2022-11-22T01:07:44;5.50;99.90
7512;DHT22;9999;48.780;9.146;2022-11-22T01:10:11;5.60;99.90
7512;DHT22;9999;48.780;9.146;2022-11-22T01:12:37;5.50;99.90
7512;DHT22;9999;48.780;9.146;2022-11-22T01:15:05;5.50;99.90
7512;DHT22;9999;48.780;9.146;2022-11-22T01:17:33;5.60;99.90
7512;DHT22;9999;48.780;9.146;2022-11-22T01:20:00;5.60;99.90
7512;DHT22;9999;48.780;9.146;2022-11-22T01:22:27;5.60;99.90
7512;DHT22;9999;48.780;9.146;2022-11-22T01:24:55;5.60;99.90
7512;DHT22;9999;48.780;9.146;2022-11-22T01:27:22;5.70;99.90
7512;DHT22;9999;48.780;9.146;2022-11-22T01:29:52;5.70;99.90
7512;DHT22;9999;48.780;9.146;2022-11-22T01:32:19;5.70;99.90
7512;DHT22;9999;48.780;9.146;2022-11-22T01:34:46;5.80;99.90
7512;DHT22;9999;48.780;9.146;2022-11-22T01:37:13;5.70;99.90
7512;DHT22;9999;48.780;9.146;2022-11-22T01:39:40;5.70;99.90
7512;DHT22;9999;48.780;9.146;2022-11-22T01:42:09;5.70;99.90
7512;DHT22;9999;48.780;9.146;2022-11-22T01:44:39;5.70;99.90
7512;DHT22;9999;48.780;9.146;2022-11-22T01:47:10;5.80;99.90
7512;DHT22;9999;48.780;9.146;2022-11-22T01:49:40;5.80;99.90
7512;DHT22;9999;48.780;9.146;2022-11-22T01:52:13;5.70;99.90
7512;DHT22;9999;48.780;9.146;2022-11-22T01:54:45;5.70;99.90
7512;DHT22;9999;48.780;9.146;2022-11-22T01:57:17;5.80;99.90
7512;DHT22;9999;48.780;9.146;2022-11-22T01:59:50;5.80;99.90
7512;DHT22;9999;48.780;9.146;2022-11-22T02:02:18;5.90;99.90
7512;DHT22;9999;48.780;9.146;2022-11-22T02:04:45;5.90;99.90
7512;DHT22;9999;48.780;9.146;2022-11-22T02:07:17;5.90;99.90
7512;DHT22;9999;48.780;9.146;2022-11-22T02:09:45;5.90;99.90
7512;DHT22;9999;48.780;9.146;2022-11-22T02:12:16;5.80;99.90
7512;DHT22;9999;48.780;9.146;2022-11-22T02:14:45;5.90;99.90
7512;DHT22;9999;48.780;9.146;2022-11-22T02:17:12;5.90;99.90
7512;DHT22;9999;48.780;9.146;2022-11-22T02:19:42;5.90;99.90
7512;DHT22;9999;48.780;9.146;2022-11-22T02:22:18;6.00;99.90
7512;DHT22;9999;48.780;9.146;2022-11-22T02:24:51;6.00;99.90
7512;DHT22;9999;48.780;9.146;2022-11-22T02:27:20;6.10;99.90
7512;DHT22;9999;48.780;9.146;2022-11-22T02:29:47;6.10;99.90
7512;DHT22;9999;48.780;9.146;2022-11-22T02:32:14;6.00;99.90
7512;DHT22;9999;48.780;9.146;2022-11-22T02:34:44;6.00;99.90
7512;DHT22;9999;48.780;9.146;2022-11-22T02:37:13;6.00;99.90
7512;DHT22;9999;48.780;9.146;2022-11-22T02:39:43;6.10;99.90
7512;DHT22;9999;48.780;9.146;2022-11-22T02:42:12;6.10;99.90
7512;DHT22;9999;48.780;9.146;2022-11-22T02:44:41;6.10;99.90
7512;DHT22;9999;48.780;9.146;2022-11-22T02:47:11;6.10;99.90
7512;DHT22;9999;48.780;9.146;2022-11-22T02:49:38;6.10;99.90
7512;DHT22;9999;48.780;9.146;2022-11-22T02:52:05;6.10;99.90
7512;DHT22;9999;48.780;9.146;2022-11-22T02:54:32;6.10;99.90
7512;DHT22;9999;48.780;9.146;2022-11-22T02:57:01;6.20;99.90
7512;DHT22;9999;48.780;9.146;2022-11-22T02:59:28;6.20;99.90
7512;DHT22;9999;48.780;9.146;2022-11-22T03:01:56;6.20;99.90
7512;DHT22;9999;48.780;9.146;2022-11-22T03:04:23;6.30;99.90
7512;DHT22;9999;48.780;9.146;2022-11-22T03:06:51;6.20;99.90
7512;DHT22;9999;48.780;9.146;2022-11-22T03:09:18;6.10;99.90
7512;DHT22;9999;48.780;9.146;2022-11-22T03:11:45;6.10;99.90
7512;DHT22;9999;48.780;9.146;2022-11-22T03:14:13;6.10;99.90
7512;DHT22;9999;48.780;9.146;2022-11-22T03:16:40;6.10;99.90
7512;DHT22;9999;48.780;9.146;2022-11-22T03:19:10;6.00;99.90
7512;DHT22;9999;48.780;9.146;2022-11-22T03:21:37;6.00;99.90
7512;DHT22;9999;48.780;9.146;2022-11-22T03:24:05;6.00;99.90
7512;DHT22;9999;48.780;9.146;2022-11-22T03:26:32;6.00;99.90
7512;DHT22;9999;48.780;9.146;2022-11-22T03:28:59;6.00;99.90
7512;DHT22;9999;48.780;9.146;2022-11-22T03:31:26;6.00;99.90
7512;DHT22;9999;48.780;9.146;2022-11-22T03:33:54;6.00;99.90
7512;DHT22;9999;48.780;9.146;2022-11-22T03:36:22;5.90;99.90
7512;DHT22;9999;48.780;9.146;2022-11-22T03:38:49;6.00;99.90
7512;DHT22;9999;48.780;9.146;2022-11-22T03:41:16;6.00;99.90
7512;DHT22;9999;48.780;9.146;2022-11-22T03:43:43;6.00;99.90
7512;DHT22;9999;48.780;9.146;2022-11-22T03:46:14;5.80;99.90
7512;DHT22;9999;48.780;9.146;2022-11-22T03:48:40;5.80;99.90
7512;DHT22;9999;48.780;9.146;2022-11-22T03:51:08;5.80;99.90
7512;DHT22;9999;48.780;9.146;2022-11-22T03:53:36;5.80;99.90
7512;DHT22;9999;48.780;9.146;2022-11-22T03:56:04;5.80;99.90
7512;DHT22;9999;48.780;9.146;2022-11-22T03:58:31;5.90;99.90
7512;DHT22;9999;48.780;9.146;2022-11-22T04:00:59;5.90;99.90
7512;DHT22;9999;48.780;9.146;2022-11-22T04:03:26;6.00;99.90
7512;DHT22;9999;48.780;9.146;2022-11-22T04:05:53;6.00;99.90
7512;DHT22;9999;48.780;9.146;2022-11-22T04:08:20;5.90;99.90
7512;DHT22;9999;48.780;9.146;2022-11-22T04:10:49;5.90;99.90
7512;DHT22;9999;48.780;9.146;2022-11-22T04:13:16;5.80;99.90
7512;DHT22;9999;48.780;9.146;2022-11-22T04:15:43;5.80;99.90
7512;DHT22;9999;48.780;9.146;2022-11-22T04:18:09;5.80;99.90
7512;DHT22;9999;48.780;9.146;2022-11-22T04:20:36;5.80;99.90
7512;DHT22;9999;48.780;9.146;2022-11-22T04:23:23;5.90;99.90
7512;DHT22;9999;48.780;9.146;2022-11-22T04:25:53;5.80;99.90
7512;DHT22;9999;48.780;9.146;2022-11-22T04:28:21;5.70;99.90
7512;DHT22;9999;48.780;9.146;2022-11-22T04:30:48;5.60;99.90
7512;DHT22;9999;48.780;9.146;2022-11-22T04:33:29;5.60;99.90
7512;DHT22;9999;48.780;9.146;2022-11-22T04:35:56;5.70;99.90
7512;DHT22;9999;48.780;9.146;2022-11-22T04:38:23;5.60;99.90
7512;DHT22;9999;48.780;9.146;2022-11-22T04:40:52;5.50;99.90
7512;DHT22;9999;48.780;9.146;2022-11-22T04:43:20;5.60;99.90
7512;DHT22;9999;48.780;9.146;2022-11-22T04:46:05;5.60;99.90
7512;DHT22;9999;48.780;9.146;2022-11-22T04:48:32;5.60;99.90
7512;DHT22;9999;48.780;9.146;2022-11-22T04:51:01;5.60;99.90
7512;DHT22;9999;48.780;9.146;2022-11-22T04:53:46;5.60;99.90
7512;DHT22;9999;48.780;9.146;2022-11-22T04:56:14;5.60;99.90
7512;DHT22;9999;48.780;9.146;2022-11-22T04:58:41;5.60;99.90
7512;DHT22;9999;48.780;9.146;2022-11-22T05:01:08;5.50;99.90
7512;DHT22;9999;48.780;9.146;2022-11-22T05:03:35;5.40;99.90
7512;DHT22;9999;48.780;9.146;2022-11-22T05:06:04;5.40;99.90
7512;DHT22;9999;48.780;9.146;2022-11-22T05:08:31;5.50;99.90
7512;DHT22;9999;48.780;9.146;2022-11-22T05:10:58;5.50;99.90
7512;DHT22;9999;48.780;9.146;2022-11-22T05:13:29;5.30;99.90
7512;DHT22;9999;48.780;9.146;2022-11-22T05:15:57;5.20;99.90
7512;DHT22;9999;48.780;9.146;2022-11-22T05:18:25;5.20;99.90
7512;DHT22;9999;48.780;9.146;2022-11-22T05:20:52;5.30;99.90
7512;DHT22;9999;48.780;9.146;2022-11-22T05:23:19;5.30;99.90
7512;DHT22;9999;48.780;9.146;2022-11-22T05:26:05;5.30;99.90
7512;DHT22;9999;48.780;9.146;2022-11-22T05:28:34;5.20;99.90
7512;DHT22;9999;48.780;9.146;2022-11-22T05:31:06;5.20;99.90
7512;DHT22;9999;48.780;9.146;2022-11-22T05:33:35;5.10;99.90
7512;DHT22;9999;48.780;9.146;2022-11-22T05:36:02;5.10;99.90
7512;DHT22;9999;48.780;9.146;2022-11-22T05:38:29;5.20;99.90
7512;DHT22;9999;48.780;9.146;2022-11-22T05:40:56;5.20;99.90
7512;DHT22;9999;48.780;9.146;2022-11-22T05:43:23;5.10;99.90
7512;DHT22;9999;48.780;9.146;2022-11-22T05:45:51;5.10;99.90
7512;DHT22;9999;48.780;9.146;2022-11-22T05:48:18;5.10;99.90
7512;DHT22;9999;48.780;9.146;2022-11-22T05:50:45;5.20;99.90
7512;DHT22;9999;48.780;9.146;2022-11-22T05:53:12;5.30;99.90
7512;DHT22;9999;48.780;9.146;2022-11-22T05:55:40;5.30;99.90
7512;DHT22;9999;48.780;9.146;2022-11-22T05:58:07;5.40;99.90
7512;DHT22;9999;48.780;9.146;2022-11-22T06:00:34;5.40;99.90
7512;DHT22;9999;48.780;9.146;2022-11-22T06:03:03;5.40;99.90
7512;DHT22;9999;48.780;9.146;2022-11-22T06:05:31;5.40;99.90
7512;DHT22;9999;48.780;9.146;2022-11-22T06:07:59;5.40;99.90
7512;DHT22;9999;48.780;9.146;2022-11-22T06:10:27;5.50;99.90
7512;DHT22;9999;48.780;9.146;2022-11-22T06:12:54;5.50;99.90
7512;DHT22;9999;48.780;9.146;2022-11-22T06:15:22;5.50;99.90
7512;DHT22;9999;48.780;9.146;2022-11-22T06:17:49;5.60;99.90
7512;DHT22;9999;48.780;9.146;2022-11-22T06:20:17;5.60;99.90
7512;DHT22;9999;48.780;9.146;2022-11-22T06:22:44;5.60;99.90
7512;DHT22;9999;48.780;9.146;2022-11-22T06:25:11;5.60;99.90
7512;DHT22;9999;48.780;9.146;2022-11-22T06:27:38;5.50;99.90
7512;DHT22;9999;48.780;9.146;2022-11-22T06:30:06;5.30;99.90
7512;DHT22;9999;48.780;9.146;2022-11-22T06:32:33;5.30;99.90
7512;DHT22;9999;48.780;9.146;2022-11-22T06:35:01;5.40;99.90
7512;DHT22;9999;48.780;9.146;2022-11-22T06:37:29;5.40;99.90
7512;DHT22;9999;48.780;9.146;2022-11-22T06:39:56;5.30;99.90
7512;DHT22;9999;48.780;9.146;2022-11-22T06:42:23;5.30;99.90
7512;DHT22;9999;48.780;9.146;2022-11-22T06:44:50;5.30;99.90
7512;DHT22;9999;48.780;9.146;2022-11-22T06:47:17;5.20;99.90
7512;DHT22;9999;48.780;9.146;2022-11-22T06:49:44;5.20;99.90
7512;DHT22;9999;48.780;9.146;2022-11-22T06:52:11;5.30;99.90
7512;DHT22;9999;48.780;9.146;2022-11-22T06:54:40;5.20;99.90
7512;DHT22;9999;48.780;9.146;2022-11-22T06:57:06;5.20;99.90
7512;DHT22;9999;48.780;9.146;2022-11-22T06:59:34;5.20;99.90
7512;DHT22;9999;48.780;9.146;2022-11-22T07:02:01;5.30;99.90
7512;DHT22;9999;48.780;9.146;2022-11-22T07:04:28;5.30;99.90
7512;DHT22;9999;48.780;9.146;2022-11-22T07:06:55;5.30;99.90
7512;DHT22;9999;48.780;9.146;2022-11-22T07:09:22;5.40;99.90
7512;DHT22;9999;48.780;9.146;2022-11-22T07:11:50;5.40;99.90
7512;DHT22;9999;48.780;9.146;2022-11-22T07:14:17;5.40;99.90
7512;DHT22;9999;48.780;9.146;2022-11-22T07:16:44;5.50;99.90
7512;DHT22;9999;48.780;9.146;2022-11-22T07:19:11;5.50;99.90
7512;DHT22;9999;48.780;9.146;2022-11-22T07:21:38;5.50;99.90
7512;DHT22;9999;48.780;9.146;2022-11-22T07:24:06;5.50;99.90
7512;DHT22;9999;48.780;9.146;2022-11-22T07:26:33;5.50;99.90
7512;DHT22;9999;48.780;9.146;2022-11-22T07:29:02;5.40;99.90
7512;DHT22;9999;48.780;9.146;2022-11-22T07:31:29;5.50;99.90
7512;DHT22;9999;48.780;9.146;2022-11-22T07:33:56;5.50;99.90
7512;DHT22;9999;48.780;9.146;2022-11-22T07:36:24;5.40;99.90
7512;DHT22;9999;48.780;9.146;2022-11-22T07:38:54;5.40;99.90
7512;DHT22;9999;48.780;9.146;2022-11-22T07:41:21;5.50;99.90
7512;DHT22;9999;48.780;9.146;2022-11-22T07:43:48;5.40;99.90
7512;DHT22;9999;48.780;9.146;2022-11-22T07:46:21;5.50;99.90
7512;DHT22;9999;48.780;9.146;2022-11-22T07:48:48;5.40;99.90
7512;DHT22;9999;48.780;9.146;2022-11-22T07:51:15;5.40;99.90
7512;DHT22;9999;48.780;9.146;2022-11-22T07:53:43;5.30;99.90
7512;DHT22;9999;48.780;9.146;2022-11-22T07:56:10;5.30;99.90
7512;DHT22;9999;48.780;9.146;2022-11-22T07:58:37;5.30;99.90
7512;DHT22;9999;48.780;9.146;2022-11-22T08:01:05;5.30;99.90
7512;DHT22;9999;48.780;9.146;2022-11-22T08:03:34;5.40;99.90
7512;DHT22;9999;48.780;9.146;2022-11-22T08:06:03;5.40;99.90
7512;DHT22;9999;48.780;9.146;2022-11-22T08:08:30;5.40;99.90
7512;DHT22;9999;48.780;9.146;2022-11-22T08:10:57;5.40;99.90
7512;DHT22;9999;48.780;9.146;2022-11-22T08:13:24;5.40;99.90
7512;DHT22;9999;48.780;9.146;2022-11-22T08:15:51;5.40;99.90
7512;DHT22;9999;48.780;9.146;2022-11-22T08:18:18;5.40;99.90
7512;DHT22;9999;48.780;9.146;2022-11-22T08:20:47;5.40;99.90
7512;DHT22;9999;48.780;9.146;2022-11-22T08:23:13;5.50;99.90
7512;DHT22;9999;48.780;9.146;2022-11-22T08:25:40;5.50;99.90
7512;DHT22;9999;48.780;9.146;2022-11-22T08:28:07;5.50;99.90
7512;DHT22;9999;48.780;9.146;2022-11-22T08:30:34;5.40;99.90
7512;DHT22;9999;48.780;9.146;2022-11-22T08:33:01;5.50;99.90
7512;DHT22;9999;48.780;9.146;2022-11-22T08:35:28;5.50;99.90
7512;DHT22;9999;48.780;9.146;2022-11-22T08:37:56;5.50;99.90
7512;DHT22;9999;48.780;9.146;2022-11-22T08:40:23;5.60;99.90
7512;DHT22;9999;48.780;9.146;2022-11-22T08:42:53;5.70;99.90
7512;DHT22;9999;48.780;9.146;2022-11-22T08:45:21;5.70;99.90
7512;DHT22;9999;48.780;9.146;2022-11-22T08:47:48;5.80;99.90
7512;DHT22;9999;48.780;9.146;2022-11-22T08:50:16;5.90;99.90
7512;DHT22;9999;48.780;9.146;2022-11-22T08:52:43;6.00;99.90
7512;DHT22;9999;48.780;9.146;2022-11-22T08:55:12;5.90;99.90
7512;DHT22;9999;48.780;9.146;2022-11-22T08:57:39;5.90;99.90
7512;DHT22;9999;48.780;9.146;2022-11-22T09:00:07;6.00;99.90
7512;DHT22;9999;48.780;9.146;2022-11-22T09:02:35;5.90;99.90
7512;DHT22;9999;48.780;9.146;2022-11-22T09:05:02;6.00;99.90
7512;DHT22;9999;48.780;9.146;2022-11-22T09:07:29;6.10;99.90
7512;DHT22;9999;48.780;9.146;2022-11-22T09:09:56;6.10;99.90
7512;DHT22;9999;48.780;9.146;2022-11-22T09:12:24;6.10;99.90
7512;DHT22;9999;48.780;9.146;2022-11-22T09:14:51;6.10;99.90
7512;DHT22;9999;48.780;9.146;2022-11-22T09:17:18;6.20;99.90
7512;DHT22;9999;48.780;9.146;2022-11-22T09:19:45;6.20;99.90
7512;DHT22;9999;48.780;9.146;2022-11-22T09:22:12;6.20;99.90
7512;DHT22;9999;48.780;9.146;2022-11-22T09:24:39;6.30;99.90
7512;DHT22;9999;48.780;9.146;2022-11-22T09:27:06;6.30;99.90
7512;DHT22;9999;48.780;9.146;2022-11-22T09:29:34;6.40;99.90
7512;DHT22;9999;48.780;9.146;2022-11-22T09:32:01;6.40;99.90
7512;DHT22;9999;48.780;9.146;2022-11-22T09:34:29;6.40;99.90
7512;DHT22;9999;48.780;9.146;2022-11-22T09:36:55;6.50;99.90
7512;DHT22;9999;48.780;9.146;2022-11-22T09:39:22;6.60;99.90
7512;DHT22;9999;48.780;9.146;2022-11-22T09:42:11;6.60;99.90
7512;DHT22;9999;48.780;9.146;2022-11-22T09:45:00;6.60;99.90
7512;DHT22;9999;48.780;9.146;2022-11-22T09:47:38;6.60;99.90
7512;DHT22;9999;48.780;9.146;2022-11-22T09:50:13;6.60;99.90
7512;DHT22;9999;48.780;9.146;2022-11-22T09:52:48;6.60;99.90
7512;DHT22;9999;48.780;9.146;2022-11-22T09:55:22;6.60;99.90
7512;DHT22;9999;48.780;9.146;2022-11-22T09:57:55;6.50;99.90
7512;DHT22;9999;48.780;9.146;2022-11-22T10:00:28;6.60;99.90
7512;DHT22;9999;48.780;9.146;2022-11-22T10:03:02;6.70;99.90
7512;DHT22;9999;48.780;9.146;2022-11-22T10:05:33;6.70;99.90
7512;DHT22;9999;48.780;9.146;2022-11-22T10:08:10;6.70;99.90
7512;DHT22;9999;48.780;9.146;2022-11-22T10:10:41;6.80;99.90
7512;DHT22;9999;48.780;9.146;2022-11-22T10:13:12;6.70;99.90
7512;DHT22;9999;48.780;9.146;2022-11-22T10:15:49;6.90;99.90
7512;DHT22;9999;48.780;9.146;2022-11-22T10:18:22;6.90;99.90
7512;DHT22;9999;48.780;9.146;2022-11-22T10:20:52;6.90;99.90
7512;DHT22;9999;48.780;9.146;2022-11-22T10:23:21;6.90;99.90
7512;DHT22;9999;48.780;9.146;2022-11-22T10:25:55;6.90;99.90
7512;DHT22;9999;48.780;9.146;2022-11-22T10:28:29;6.90;99.90
7512;DHT22;9999;48.780;9.146;2022-11-22T10:31:03;6.90;99.90
7512;DHT22;9999;48.780;9.146;2022-11-22T10:33:36;7.00;99.90
7512;DHT22;9999;48.780;9.146;2022-11-22T10:36:21;7.00;99.90
7512;DHT22;9999;48.780;9.146;2022-11-22T10:39:13;7.00;99.90
7512;DHT22;9999;48.780;9.146;2022-11-22T10:41:53;7.00;99.90
7512;DHT22;9999;48.780;9.146;2022-11-22T10:44:33;7.00;99.90
7512;DHT22;9999;48.780;9.146;2022-11-22T10:47:12;7.00;99.90
7512;DHT22;9999;48.780;9.146;2022-11-22T10:49:48;7.00;99.90
7512;DHT22;9999;48.780;9.146;2022-11-22T10:52:27;7.00;99.90
7512;DHT22;9999;48.780;9.146;2022-11-22T10:55:02;7.10;99.90
7512;DHT22;9999;48.780;9.146;2022-11-22T10:57:37;7.10;99.90
7512;DHT22;9999;48.780;9.146;2022-11-22T11:00:17;7.20;99.90
7512;DHT22;9999;48.780;9.146;2022-11-22T11:03:07;7.10;99.90
7512;DHT22;9999;48.780;9.146;2022-11-22T11:05:42;7.10;99.90
7512;DHT22;9999;48.780;9.146;2022-11-22T11:08:15;7.10;99.90
7512;DHT22;9999;48.780;9.146;2022-11-22T11:10:43;7.20;99.90
7512;DHT22;9999;48.780;9.146;2022-11-22T11:13:19;7.10;99.90
7512;DHT22;9999;48.780;9.146;2022-11-22T11:15:50;7.10;99.90
7512;DHT22;9999;48.780;9.146;2022-11-22T11:18:24;7.00;99.90
7512;DHT22;9999;48.780;9.146;2022-11-22T11:20:52;7.00;99.90
7512;DHT22;9999;48.780;9.146;2022-11-22T11:23:19;7.00;99.90
7512;DHT22;9999;48.780;9.146;2022-11-22T11:25:47;7.00;99.90
7512;DHT22;9999;48.780;9.146;2022-11-22T11:28:20;6.90;99.90
7512;DHT22;9999;48.780;9.146;2022-11-22T11:30:51;7.00;99.90
7512;DHT22;9999;48.780;9.146;2022-11-22T11:33:24;7.10;99.90
7512;DHT22;9999;48.780;9.146;2022-11-22T11:35:55;7.10;99.90
7512;DHT22;9999;48.780;9.146;2022-11-22T11:38:33;7.10;99.90
7512;DHT22;9999;48.780;9.146;2022-11-22T11:41:22;7.10;99.90
7512;DHT22;9999;48.780;9.146;2022-11-22T11:43:50;7.20;99.90
7512;DHT22;9999;48.780;9.146;2022-11-22T11:46:19;7.10;99.90
7512;DHT22;9999;48.780;9.146;2022-11-22T11:48:48;7.20;99.90
7512;DHT22;9999;48.780;9.146;2022-11-22T11:51:19;7.20;99.90
7512;DHT22;9999;48.780;9.146;2022-11-22T11:53:54;7.30;99.90
7512;DHT22;9999;48.780;9.146;2022-11-22T11:56:32;7.20;99.90
7512;DHT22;9999;48.780;9.146;2022-11-22T11:59:05;7.30;99.90
7512;DHT22;9999;48.780;9.146;2022-11-22T12:01:35;7.30;99.90
7512;DHT22;9999;48.780;9.146;2022-11-22T12:04:05;7.30;99.90
7512;DHT22;9999;48.780;9.146;2022-11-22T12:06:32;7.20;99.90
7512;DHT22;9999;48.780;9.146;2022-11-22T12:09:00;7.20;99.90
7512;DHT22;9999;48.780;9.146;2022-11-22T12:11:37;7.30;99.90
7512;DHT22;9999;48.780;9.146;2022-11-22T12:14:10;7.30;99.90
7512;DHT22;9999;48.780;9.146;2022-11-22T12:16:41;7.30;99.90
7512;DHT22;9999;48.780;9.146;2022-11-22T12:19:17;7.30;99.90
7512;DHT22;9999;48.780;9.146;2022-11-22T12:21:53;7.30;99.90
7512;DHT22;9999;48.780;9.146;2022-11-22T12:24:25;7.30;99.90
7512;DHT22;9999;48.780;9.146;2022-11-22T12:26:53;7.30;99.90
7512;DHT22;9999;48.780;9.146;2022-11-22T12:29:22;7.40;99.90
7512;DHT22;9999;48.780;9.146;2022-11-22T12:31:52;7.50;99.90
7512;DHT22;9999;48.780;9.146;2022-11-22T12:34:27;7.40;99.90
7512;DHT22;9999;48.780;9.146;2022-11-22T12:37:02;7.50;99.90
7512;DHT22;9999;48.780;9.146;2022-11-22T12:39:33;7.50;99.90
7512;DHT22;9999;48.780;9.146;2022-11-22T12:42:03;7.40;99.90
7512;DHT22;9999;48.780;9.146;2022-11-22T12:44:35;7.50;99.90
7512;DHT22;9999;48.780;9.146;2022-11-22T12:47:07;7.50;99.90
7512;DHT22;9999;48.780;9.146;2022-11-22T12:49:41;7.50;99.90
7512;DHT22;9999;48.780;9.146;2022-11-22T12:52:14;7.50;99.90
7512;DHT22;9999;48.780;9.146;2022-11-22T12:54:49;7.50;99.90
7512;DHT22;9999;48.780;9.146;2022-11-22T12:57:21;7.50;99.90
7512;DHT22;9999;48.780;9.146;2022-11-22T12:59:56;7.50;99.90
7512;DHT22;9999;48.780;9.146;2022-11-22T13:02:29;7.50;99.90
7512;DHT22;9999;48.780;9.146;2022-11-22T13:05:02;7.50;99.90
7512;DHT22;9999;48.780;9.146;2022-11-22T13:07:46;7.50;99.90
7512;DHT22;9999;48.780;9.146;2022-11-22T13:10:25;7.50;99.90
7512;DHT22;9999;48.780;9.146;2022-11-22T13:12:56;7.60;99.90
7512;DHT22;9999;48.780;9.146;2022-11-22T13:15:27;7.60;99.90
7512;DHT22;9999;48.780;9.146;2022-11-22T13:17:54;7.60;99.90
7512;DHT22;9999;48.780;9.146;2022-11-22T13:20:25;7.50;99.90
7512;DHT22;9999;48.780;9.146;2022-11-22T13:23:03;7.50;99.90
7512;DHT22;9999;48.780;9.146;2022-11-22T13:25:52;7.50;99.90
7512;DHT22;9999;48.780;9.146;2022-11-22T13:28:25;7.50;99.90
7512;DHT22;9999;48.780;9.146;2022-11-22T13:31:05;7.60;99.90
7512;DHT22;9999;48.780;9.146;2022-11-22T13:33:34;7.60;99.90
7512;DHT22;9999;48.780;9.146;2022-11-22T13:36:23;7.50;99.90
7512;DHT22;9999;48.780;9.146;2022-11-22T13:38:51;7.50;99.90
7512;DHT22;9999;48.780;9.146;2022-11-22T13:41:24;7.60;99.90
7512;DHT22;9999;48.780;9.146;2022-11-22T13:43:55;7.50;99.90
7512;DHT22;9999;48.780;9.146;2022-11-22T13:46:57;7.40;99.90
7512;DHT22;9999;48.780;9.146;2022-11-22T13:49:43;7.50;99.90
7512;DHT22;9999;48.780;9.146;2022-11-22T13:52:49;7.40;99.90
7512;DHT22;9999;48.780;9.146;2022-11-22T13:55:40;7.30;99.90
7512;DHT22;9999;48.780;9.146;2022-11-22T14:07:04;7.30;99.90
7512;DHT22;9999;48.780;9.146;2022-11-22T14:09:42;7.30;99.90
7512;DHT22;9999;48.780;9.146;2022-11-22T14:12:22;7.20;99.90
7512;DHT22;9999;48.780;9.146;2022-11-22T14:15:16;7.30;99.90
7512;DHT22;9999;48.780;9.146;2022-11-22T14:17:52;7.30;99.90
7512;DHT22;9999;48.780;9.146;2022-11-22T14:20:33;7.30;99.90
7512;DHT22;9999;48.780;9.146;2022-11-22T14:23:11;7.20;99.90
7512;DHT22;9999;48.780;9.146;2022-11-22T14:25:59;7.20;99.90
7512;DHT22;9999;48.780;9.146;2022-11-22T14:29:10;7.20;99.90
7512;DHT22;9999;48.780;9.146;2022-11-22T14:31:41;7.20;99.90
7512;DHT22;9999;48.780;9.146;2022-11-22T14:34:17;7.20;99.90
7512;DHT22;9999;48.780;9.146;2022-11-22T14:37:33;7.20;99.90
7512;DHT22;9999;48.780;9.146;2022-11-22T14:39:59;7.20;99.90
7512;DHT22;9999;48.780;9.146;2022-11-22T14:42:51;7.10;99.90
7512;DHT22;9999;48.780;9.146;2022-11-22T14:45:26;7.10;99.90
7512;DHT22;9999;48.780;9.146;2022-11-22T14:48:00;7.10;99.90
7512;DHT22;9999;48.780;9.146;2022-11-22T14:50:31;7.10;99.90
7512;DHT22;9999;48.780;9.146;2022-11-22T14:53:05;7.00;99.90
7512;DHT22;9999;48.780;9.146;2022-11-22T14:55:34;7.10;99.90
7512;DHT22;9999;48.780;9.146;2022-11-22T14:58:05;7.00;99.90
7512;DHT22;9999;48.780;9.146;2022-11-22T15:00:44;7.00;99.90
7512;DHT22;9999;48.780;9.146;2022-11-22T15:06:24;6.80;99.90
7512;DHT22;9999;48.780;9.146;2022-11-22T15:09:03;6.80;99.90
7512;DHT22;9999;48.780;9.146;2022-11-22T15:11:51;6.80;99.90
7512;DHT22;9999;48.780;9.146;2022-11-22T15:17:27;6.80;99.90
7512;DHT22;9999;48.780;9.146;2022-11-22T15:19:55;6.70;99.90
7512;DHT22;9999;48.780;9.146;2022-11-22T15:22:26;6.70;99.90
7512;DHT22;9999;48.780;9.146;2022-11-22T15:24:54;6.70;99.90
7512;DHT22;9999;48.780;9.146;2022-11-22T15:27:25;6.70;99.90
7512;DHT22;9999;48.780;9.146;2022-11-22T15:30:11;6.70;99.90
7512;DHT22;9999;48.780;9.146;2022-11-22T15:32:40;6.70;99.90
7512;DHT22;9999;48.780;9.146;2022-11-22T15:35:13;6.70;99.90
7512;DHT22;9999;48.780;9.146;2022-11-22T15:37:49;6.60;99.90
7512;DHT22;9999;48.780;9.146;2022-11-22T15:40:18;6.80;99.90
7512;DHT22;9999;48.780;9.146;2022-11-22T15:42:51;6.70;99.90
7512;DHT22;9999;48.780;9.146;2022-11-22T15:45:20;6.70;99.90
7512;DHT22;9999;48.780;9.146;2022-11-22T15:47:52;6.70;99.90
7512;DHT22;9999;48.780;9.146;2022-11-22T15:50:20;6.60;99.90
7512;DHT22;9999;48.780;9.146;2022-11-22T15:52:50;6.50;99.90
7512;DHT22;9999;48.780;9.146;2022-11-22T15:55:21;6.50;99.90
7512;DHT22;9999;48.780;9.146;2022-11-22T15:57:50;6.50;99.90
7512;DHT22;9999;48.780;9.146;2022-11-22T16:00:21;6.40;99.90
7512;DHT22;9999;48.780;9.146;2022-11-22T16:02:51;6.50;99.90
7512;DHT22;9999;48.780;9.146;2022-11-22T16:05:27;6.60;99.90
7512;DHT22;9999;48.780;9.146;2022-11-22T16:07:55;6.60;99.90
7512;DHT22;9999;48.780;9.146;2022-11-22T16:10:26;6.60;99.90
7512;DHT22;9999;48.780;9.146;2022-11-22T16:13:10;6.50;99.90
7512;DHT22;9999;48.780;9.146;2022-11-22T16:15:39;6.50;99.90
7512;DHT22;9999;48.780;9.146;2022-11-22T16:18:10;6.50;99.90
7512;DHT22;9999;48.780;9.146;2022-11-22T16:20:39;6.60;99.90
7512;DHT22;9999;48.780;9.146;2022-11-22T16:23:22;6.60;99.90
7512;DHT22;9999;48.780;9.146;2022-11-22T16:25:52;6.60;99.90
7512;DHT22;9999;48.780;9.146;2022-11-22T16:28:35;6.60;99.90
7512;DHT22;9999;48.780;9.146;2022-11-22T16:31:06;6.60;99.90
7512;DHT22;9999;48.780;9.146;2022-11-22T16:33:41;6.60;99.90
7512;DHT22;9999;48.780;9.146;2022-11-22T16:36:11;6.70;99.90
7512;DHT22;9999;48.780;9.146;2022-11-22T16:38:38;6.70;99.90
7512;DHT22;9999;48.780;9.146;2022-11-22T16:41:11;6.70;99.90
7512;DHT22;9999;48.780;9.146;2022-11-22T16:43:39;6.60;99.90
7512;DHT22;9999;48.780;9.146;2022-11-22T16:46:09;6.70;99.90
7512;DHT22;9999;48.780;9.146;2022-11-22T16:48:38;6.70;99.90
7512;DHT22;9999;48.780;9.146;2022-11-22T16:51:12;6.80;99.90
7512;DHT22;9999;48.780;9.146;2022-11-22T16:53:42;6.80;99.90
7512;DHT22;9999;48.780;9.146;2022-11-22T16:56:15;6.80;99.90